createdAt,value
2018-03-30T00:02:03.037Z,12.93
2018-03-30T00:07:06.426Z,11.73
2018-03-30T00:12:09.886Z,13.60
2018-03-30T00:17:14.201Z,12.13
2018-03-30T00:22:17.625Z,10.90
2018-03-30T00:27:20.856Z,13.30
2018-03-30T00:32:24.189Z,8.50
2018-03-30T00:37:28.164Z,10.77
2018-03-30T00:42:31.371Z,12.00
2018-03-30T00:47:34.999Z,13.00
2018-03-30T00:52:38.795Z,11.23
2018-03-30T00:57:42.003Z,12.07
2018-03-30T01:02:45.241Z,9.83
2018-03-30T01:07:50.056Z,8.43
2018-03-30T01:12:54.056Z,8.23
2018-03-30T01:17:57.390Z,11.47
2018-03-30T01:23:02.120Z,11.60
2018-03-30T01:28:06.279Z,12.30
2018-03-30T01:33:09.565Z,11.40
2018-03-30T01:38:19.555Z,10.87
2018-03-30T01:48:58.876Z,7.37
2018-03-30T01:54:02.108Z,9.23
2018-03-30T01:59:05.519Z,11.60
2018-03-30T02:04:08.788Z,12.90
2018-03-30T02:09:12.000Z,16.20
2018-03-30T02:14:15.291Z,14.87
2018-03-30T02:19:18.559Z,17.17
2018-03-30T02:24:22.314Z,15.93
2018-03-30T02:29:25.519Z,17.43
2018-03-30T02:34:29.340Z,15.93
2018-03-30T02:39:32.569Z,15.23
2018-03-30T02:44:36.402Z,17.67
2018-03-30T02:49:39.737Z,17.80
2018-03-30T02:54:43.355Z,16.27
2018-03-30T02:59:47.019Z,14.60
2018-03-30T03:04:50.334Z,15.73
2018-03-30T03:09:53.571Z,14.20
2018-03-30T03:14:56.973Z,15.30
2018-03-30T03:20:00.184Z,13.23
2018-03-30T03:25:03.474Z,14.73
2018-03-30T03:30:06.698Z,12.73
2018-03-30T03:35:10.512Z,11.50
2018-03-30T03:40:13.724Z,11.87
2018-03-30T03:45:17.341Z,12.73
2018-03-30T03:50:21.067Z,12.53
2018-03-30T03:55:24.694Z,14.37
2018-03-30T04:00:28.054Z,10.47
2018-03-30T04:05:31.281Z,9.23
2018-03-30T04:10:34.497Z,15.63
2018-03-30T04:15:38.111Z,10.03
2018-03-30T04:20:41.738Z,15.23
2018-03-30T04:25:44.961Z,11.40
2018-03-30T04:30:48.191Z,12.03
2018-03-30T04:35:51.417Z,11.93
2018-03-30T04:40:54.638Z,13.53
2018-03-30T04:45:58.327Z,12.60
2018-03-30T04:51:01.562Z,10.40
2018-03-30T04:56:04.789Z,12.83
2018-03-30T05:01:08.070Z,10.67
2018-03-30T05:06:11.277Z,8.80
2018-03-30T05:11:14.485Z,9.37
2018-03-30T05:16:18.097Z,13.80
2018-03-30T05:21:21.372Z,13.10
2018-03-30T05:26:24.621Z,13.30
2018-03-30T05:31:28.241Z,10.80
2018-03-30T05:36:31.866Z,11.87
2018-03-30T05:41:35.412Z,11.07
2018-03-30T05:46:38.639Z,11.47
2018-03-30T05:51:42.200Z,12.33
2018-03-30T05:56:45.442Z,14.83
2018-03-30T06:01:48.814Z,13.93
2018-03-30T06:06:52.045Z,15.33
2018-03-30T06:11:55.286Z,13.10
2018-03-30T06:16:58.504Z,12.80
2018-03-30T06:22:01.746Z,14.50
2018-03-30T06:27:05.012Z,16.73
2018-03-30T06:32:08.227Z,10.70
2018-03-30T06:37:11.464Z,13.43
2018-03-30T06:42:14.697Z,10.80
2018-03-30T06:47:18.088Z,9.20
2018-03-30T06:52:21.758Z,10.47
2018-03-30T06:57:24.990Z,7.60
2018-03-30T07:02:28.212Z,8.07
2018-03-30T07:07:31.445Z,10.53
2018-03-30T07:12:34.669Z,7.17
2018-03-30T07:17:38.008Z,9.13
2018-03-30T07:22:41.240Z,7.13
2018-03-30T07:27:44.465Z,8.77
2018-03-30T07:32:47.884Z,6.17
2018-03-30T07:37:51.119Z,8.87
2018-03-30T07:42:54.425Z,12.43
2018-03-30T07:47:57.707Z,11.37
2018-03-30T07:53:00.940Z,13.07
2018-03-30T07:58:04.269Z,14.03
2018-03-30T08:03:08.056Z,16.50
2018-03-30T08:08:11.272Z,13.20
2018-03-30T08:13:14.507Z,14.20
2018-03-30T08:18:17.786Z,13.27
2018-03-30T08:23:21.412Z,15.80
2018-03-30T08:28:25.016Z,14.43
2018-03-30T08:33:28.242Z,13.53
2018-03-30T08:38:31.948Z,17.13
2018-03-30T08:43:36.185Z,22.30
2018-03-30T08:48:39.471Z,21.43
2018-03-30T08:53:43.110Z,18.17
2018-03-30T08:58:47.029Z,16.90
2018-03-30T09:03:50.636Z,24.40
2018-03-30T09:08:54.236Z,18.63
2018-03-30T09:13:57.679Z,15.03
2018-03-30T09:19:00.955Z,15.67
2018-03-30T09:24:04.282Z,11.50
2018-03-30T09:29:07.947Z,12.20
2018-03-30T09:34:11.296Z,10.77
2018-03-30T09:39:19.258Z,10.50
2018-03-30T09:44:23.151Z,8.73
2018-03-30T09:49:26.377Z,6.83
2018-03-30T09:54:29.601Z,6.30
2018-03-30T09:59:32.946Z,2.90
2018-03-30T10:04:36.192Z,3.50
2018-03-30T10:09:39.457Z,3.80
2018-03-30T10:14:42.870Z,2.83
2018-03-30T10:19:46.506Z,11.20
2018-03-30T10:24:50.115Z,2.03
2018-03-30T10:29:53.783Z,2.00
2018-03-30T10:34:56.996Z,1.37
2018-03-30T10:40:01.363Z,2.50
2018-03-30T10:45:05.079Z,1.53
2018-03-30T10:50:08.785Z,1.80
2018-03-30T10:55:12.980Z,1.20
2018-03-30T11:00:16.339Z,3.50
2018-03-30T11:05:19.793Z,1.87
2018-03-30T11:10:23.002Z,1.40
2018-03-30T11:15:26.363Z,1.60
2018-03-30T11:20:29.992Z,1.85
2018-03-30T11:25:33.219Z,1.90
2018-03-30T11:30:36.436Z,2.72
2018-03-30T11:35:39.782Z,4.72
2018-03-30T11:40:43.051Z,1.40
2018-03-30T11:45:46.397Z,2.20
2018-03-30T11:50:49.711Z,5.07
2018-03-30T11:55:53.524Z,1.75
2018-03-30T12:00:57.343Z,1.92
2018-03-30T12:06:00.568Z,1.23
2018-03-30T12:11:04.223Z,1.35
2018-03-30T12:16:07.455Z,2.75
2018-03-30T12:21:10.676Z,1.02
2018-03-30T12:26:13.913Z,1.30
2018-03-30T12:31:17.151Z,1.85
2018-03-30T12:36:20.368Z,1.95
2018-03-30T12:41:23.585Z,0.70
2018-03-30T12:46:26.808Z,0.80
2018-03-30T12:51:30.112Z,0.50
2018-03-30T12:56:33.725Z,0.73
2018-03-30T13:01:36.945Z,0.35
2018-03-30T13:06:40.555Z,0.68
2018-03-30T13:11:44.153Z,0.60
2018-03-30T13:16:47.360Z,1.77
2018-03-30T13:21:50.670Z,1.27
2018-03-30T13:26:53.921Z,0.82
2018-03-30T13:31:57.264Z,0.60
2018-03-30T13:37:00.477Z,1.45
2018-03-30T13:42:03.714Z,0.32
2018-03-30T13:47:07.329Z,0.50
2018-03-30T13:52:16.603Z,0.62
2018-03-30T13:57:19.861Z,0.50
2018-03-30T14:02:31.525Z,1.05
2018-03-30T14:07:54.287Z,0.40
2018-03-30T14:12:57.537Z,0.60
2018-03-30T14:18:08.314Z,0.60
2018-03-30T14:23:22.353Z,0.62
2018-03-30T14:28:28.121Z,0.62
2018-03-30T14:33:32.208Z,0.40
2018-03-30T14:38:45.796Z,0.50
2018-03-30T14:43:52.001Z,0.73
2018-03-30T14:48:55.629Z,0.82
2018-03-30T14:54:04.133Z,0.65
2018-03-30T15:04:52.124Z,0.30
2018-03-30T15:10:07.817Z,0.60
2018-03-30T15:15:20.033Z,4.68
2018-03-30T15:20:26.076Z,0.30
2018-03-30T15:25:45.021Z,1.75
2018-03-30T15:36:34.226Z,0.50
2018-03-30T15:41:38.404Z,0.40
2018-03-30T15:46:53.226Z,0.45
2018-03-30T15:52:08.501Z,0.35
2018-03-30T15:57:12.301Z,0.30
2018-03-30T16:02:15.928Z,1.90
2018-03-30T16:07:20.046Z,0.98
2018-03-30T16:12:26.422Z,0.50
2018-03-30T16:17:29.730Z,1.00
2018-03-30T16:22:32.519Z,1.45
2018-03-30T16:27:35.493Z,1.05
2018-03-30T16:32:38.235Z,3.12
2018-03-30T16:37:40.973Z,3.50
2018-03-30T16:42:43.806Z,4.97
2018-03-30T16:47:46.808Z,3.87
2018-03-30T16:52:49.531Z,3.57
2018-03-30T16:57:52.552Z,3.40
2018-03-30T17:02:55.535Z,3.20
2018-03-30T17:07:58.277Z,2.77
2018-03-30T17:13:01.028Z,2.67
2018-03-30T17:18:06.144Z,3.70
2018-03-30T17:23:08.908Z,4.67
2018-03-30T17:28:11.931Z,4.27
2018-03-30T17:33:14.673Z,3.43
2018-03-30T17:38:18.007Z,3.00
2018-03-30T17:43:21.138Z,2.07
2018-03-30T17:48:24.481Z,3.40
2018-03-30T17:53:27.443Z,2.77
2018-03-30T17:58:31.978Z,1.43
2018-03-30T18:03:34.706Z,2.27
2018-03-30T18:08:37.515Z,1.13
2018-03-30T18:13:40.261Z,0.70
2018-03-30T18:18:43.056Z,1.20
2018-03-30T18:23:46.059Z,1.10
2018-03-30T18:28:48.928Z,0.50
2018-03-30T18:33:51.732Z,0.80
2018-03-30T18:38:56.742Z,3.30
2018-03-30T18:43:59.487Z,0.40
2018-03-30T18:49:02.263Z,0.20
2018-03-30T18:54:05.023Z,0.57
2018-03-30T18:59:07.868Z,1.57
2018-03-30T19:04:10.814Z,0.50
2018-03-30T19:09:13.554Z,0.73
2018-03-30T19:14:17.250Z,0.70
2018-03-30T19:19:20.184Z,0.40
2018-03-30T19:24:22.915Z,0.43
2018-03-30T19:29:25.649Z,0.47
2018-03-30T19:34:28.474Z,0.57
2018-03-30T19:39:31.668Z,1.00
2018-03-30T19:44:34.394Z,0.70
2018-03-30T19:49:37.137Z,0.70
2018-03-30T19:54:40.049Z,0.80
2018-03-30T19:59:42.795Z,0.70
2018-03-30T20:04:45.672Z,0.67
2018-03-30T20:09:48.410Z,0.87
2018-03-30T20:14:52.217Z,0.60
2018-03-30T20:19:55.280Z,0.33
2018-03-30T20:24:58.241Z,0.37
2018-03-30T20:30:01.168Z,0.50
2018-03-30T20:35:04.200Z,0.30
2018-03-30T20:40:06.923Z,0.90
2018-03-30T20:45:09.852Z,0.30
2018-03-30T20:50:12.607Z,0.60
2018-03-30T20:55:15.745Z,0.40
2018-03-30T21:00:18.645Z,1.07
2018-03-30T21:05:24.303Z,2.10
2018-03-30T21:10:27.298Z,0.50
2018-03-30T21:15:30.057Z,0.80
2018-03-30T21:20:34.029Z,0.87
2018-03-30T21:25:36.884Z,0.40
2018-03-30T21:30:39.773Z,0.37
2018-03-30T21:35:42.800Z,0.30
2018-03-30T21:40:46.178Z,0.50
2018-03-30T21:45:48.968Z,1.90
2018-03-30T21:50:51.712Z,0.07
2018-03-30T21:55:54.461Z,0.10
2018-03-30T22:00:57.249Z,0.27
2018-03-30T22:06:00.054Z,0.10
2018-03-30T22:11:02.786Z,0.10
2018-03-30T22:16:05.514Z,0.10
2018-03-30T22:21:08.241Z,0.67
2018-03-30T22:26:11.368Z,0.40
2018-03-30T22:31:14.108Z,0.10
2018-03-30T22:36:16.825Z,0.30
2018-03-30T22:41:19.539Z,0.10
2018-03-30T22:46:22.662Z,0.10
2018-03-30T22:51:25.376Z,0.10
2018-03-30T22:56:28.212Z,0.07
2018-03-30T23:01:31.008Z,0.10
2018-03-30T23:06:33.727Z,0.50
2018-03-30T23:11:37.060Z,0.10
2018-03-30T23:16:39.784Z,0.10
2018-03-30T23:21:42.506Z,0.10
2018-03-30T23:26:45.714Z,0.20
2018-03-30T23:31:48.824Z,0.20
2018-03-30T23:36:51.934Z,0.20
2018-03-30T23:41:55.047Z,0.07
2018-03-30T23:46:57.776Z,0.10
2018-03-30T23:52:00.505Z,0.10
2018-03-30T23:57:03.236Z,0.00
